Time;durP1;ratioP1;P1;durP2;ratioP2;P2;SDS_P1;SDS_P2;PMS_P1;PMS_P2;Temp;Humidity;BMP_temperature;BMP_pressure;BME280_temperature;BME280_humidity;BME280_pressure;Samples;Min_cycle;Max_cycle;Signal;HPM_P1;HPM_P2
2021/04/18 00:00:30;;;;;;;6.97;3.20;;;;;;;;;;4996098;28;20218;-78
2021/04/18 00:02:56;;;;;;;5.47;3.13;;;;;;;;;;4995804;28;20176;-78
2021/04/18 00:05:26;;;;;;;9.97;3.57;;;;;;;;;;4996243;28;20202;-77
2021/04/18 00:07:54;;;;;;;7.30;3.60;;;;;;;;;;5012130;28;20190;-77
2021/04/18 00:10:21;;;;;;;7.90;3.53;;;;;;;;;;5011870;28;20175;-77
2021/04/18 00:12:47;;;;;;;6.97;4.07;;;;;;;;;;5012053;28;20197;-78
2021/04/18 00:15:14;;;;;;;6.07;3.40;;;;;;;;;;5012312;28;20591;-78
2021/04/18 00:17:40;;;;;;;7.47;3.73;;;;;;;;;;4995601;28;20193;-78
2021/04/18 00:20:10;;;;;;;8.33;3.97;;;;;;;;;;4995374;28;20183;-78
2021/04/18 00:22:37;;;;;;;6.47;3.60;;;;;;;;;;4995696;28;20269;-78
2021/04/18 00:25:03;;;;;;;7.73;3.60;;;;;;;;;;4995672;28;20207;-78
2021/04/18 00:27:29;;;;;;;5.67;3.30;;;;;;;;;;5013061;28;20236;-78
2021/04/18 00:29:55;;;;;;;5.53;3.60;;;;;;;;;;5012656;28;20180;-78
2021/04/18 00:32:21;;;;;;;6.40;3.40;;;;;;;;;;4995377;28;20186;-78
2021/04/18 00:34:47;;;;;;;8.40;3.67;;;;;;;;;;4995324;28;20561;-77
2021/04/18 00:37:13;;;;;;;7.10;3.53;;;;;;;;;;4995365;28;20185;-78
2021/04/18 00:39:39;;;;;;;6.10;3.60;;;;;;;;;;5012017;28;20190;-78
2021/04/18 00:42:05;;;;;;;5.73;3.70;;;;;;;;;;4995584;28;20666;-77
2021/04/18 00:44:31;;;;;;;6.77;3.47;;;;;;;;;;4995514;28;20187;-77
2021/04/18 00:46:57;;;;;;;6.30;3.70;;;;;;;;;;4995349;28;20249;-77
2021/04/18 00:49:23;;;;;;;5.37;3.50;;;;;;;;;;5012754;28;20254;-78
2021/04/18 00:51:49;;;;;;;5.53;3.90;;;;;;;;;;4995177;28;20606;-78
2021/04/18 00:54:16;;;;;;;8.47;3.90;;;;;;;;;;4995376;28;20230;-78
2021/04/18 00:56:42;;;;;;;7.70;3.70;;;;;;;;;;5011328;28;20203;-78
2021/04/18 00:59:08;;;;;;;9.43;4.03;;;;;;;;;;5011418;28;20232;-78
2021/04/18 01:01:34;;;;;;;6.60;3.43;;;;;;;;;;5011289;28;20208;-78
2021/04/18 01:04:00;;;;;;;8.43;3.40;;;;;;;;;;4995124;28;20214;-78
2021/04/18 01:06:26;;;;;;;7.50;3.60;;;;;;;;;;5010800;28;20206;-78
2021/04/18 01:08:52;;;;;;;8.50;3.63;;;;;;;;;;5011193;28;20216;-77
2021/04/18 01:11:17;;;;;;;4.77;3.53;;;;;;;;;;5011364;28;20193;-78
2021/04/18 01:13:44;;;;;;;7.53;3.77;;;;;;;;;;5011151;28;20182;-78
2021/04/18 01:16:10;;;;;;;7.13;3.90;;;;;;;;;;5011262;28;20225;-77
2021/04/18 01:18:35;;;;;;;7.97;4.13;;;;;;;;;;4994983;28;20190;-78
2021/04/18 01:21:05;;;;;;;5.77;3.70;;;;;;;;;;4994824;28;20585;-77
2021/04/18 01:23:31;;;;;;;8.27;4.10;;;;;;;;;;5012234;28;20176;-78
2021/04/18 01:25:57;;;;;;;8.87;3.87;;;;;;;;;;4994711;28;20621;-78
2021/04/18 01:28:24;;;;;;;7.87;3.83;;;;;;;;;;5010855;28;20179;-77
2021/04/18 01:30:50;;;;;;;9.03;4.47;;;;;;;;;;4995110;28;20240;-78
2021/04/18 01:33:16;;;;;;;8.13;4.20;;;;;;;;;;5013379;28;20544;-78
2021/04/18 01:35:46;;;;;;;7.93;3.53;;;;;;;;;;5015578;28;20205;-78
2021/04/18 01:38:12;;;;;;;10.30;4.53;;;;;;;;;;4999351;28;20187;-80
2021/04/18 01:40:38;;;;;;;6.60;4.10;;;;;;;;;;4999044;28;20210;-79
2021/04/18 01:43:04;;;;;;;7.37;3.87;;;;;;;;;;4999112;28;20180;-79
2021/04/18 01:45:30;;;;;;;6.30;3.80;;;;;;;;;;4999545;28;20297;-78
2021/04/18 01:47:56;;;;;;;8.97;4.73;;;;;;;;;;4998849;28;20284;-78
2021/04/18 01:50:22;;;;;;;9.93;4.47;;;;;;;;;;4998635;28;20667;-78
2021/04/18 01:52:48;;;;;;;9.87;4.23;;;;;;;;;;5015056;28;20179;-79
2021/04/18 01:55:15;;;;;;;6.97;4.23;;;;;;;;;;5014865;28;20198;-78
2021/04/18 01:57:41;;;;;;;6.43;4.13;;;;;;;;;;5014990;28;20230;-79
2021/04/18 02:00:11;;;;;;;12.57;4.70;;;;;;;;;;5014680;28;20566;-80
2021/04/18 02:02:37;;;;;;;10.33;4.30;;;;;;;;;;4998565;28;20254;-78
2021/04/18 02:05:03;;;;;;;7.60;4.73;;;;;;;;;;4998614;28;20581;-79
2021/04/18 02:07:29;;;;;;;8.53;4.67;;;;;;;;;;4998580;28;20182;-79
2021/04/18 02:09:55;;;;;;;8.43;4.20;;;;;;;;;;5014948;28;20270;-78
2021/04/18 02:12:21;;;;;;;9.17;4.50;;;;;;;;;;5014849;28;20265;-78
2021/04/18 02:14:47;;;;;;;7.17;4.37;;;;;;;;;;5015553;28;20228;-79
2021/04/18 02:17:13;;;;;;;11.67;4.63;;;;;;;;;;5033692;23;20230;-79
2021/04/18 02:19:39;;;;;;;7.23;4.63;;;;;;;;;;5015599;28;20240;-78
2021/04/18 02:22:05;;;;;;;7.10;4.40;;;;;;;;;;5015613;28;20236;-78
2021/04/18 02:24:31;;;;;;;10.07;4.57;;;;;;;;;;5031762;28;20183;-78
2021/04/18 02:26:57;;;;;;;10.00;4.63;;;;;;;;;;5031426;28;20195;-78
2021/04/18 02:29:23;;;;;;;11.87;4.90;;;;;;;;;;5015406;28;20221;-78
2021/04/18 02:31:49;;;;;;;9.63;4.50;;;;;;;;;;5031658;28;20223;-79
2021/04/18 02:34:15;;;;;;;13.43;4.97;;;;;;;;;;5015428;28;20183;-79
2021/04/18 02:36:41;;;;;;;12.77;5.37;;;;;;;;;;5032093;28;20206;-78
2021/04/18 02:39:07;;;;;;;10.47;5.37;;;;;;;;;;5014586;28;20298;-79
2021/04/18 02:41:33;;;;;;;10.37;5.20;;;;;;;;;;5017263;28;20247;-78
2021/04/18 02:43:59;;;;;;;9.10;5.27;;;;;;;;;;5031577;28;20182;-78
2021/04/18 02:46:26;;;;;;;9.93;4.90;;;;;;;;;;5015117;28;20199;-79
2021/04/18 02:48:52;;;;;;;9.43;5.37;;;;;;;;;;5031956;28;20206;-79
2021/04/18 02:51:18;;;;;;;11.17;5.37;;;;;;;;;;5014958;28;20193;-79
2021/04/18 02:53:44;;;;;;;11.10;5.40;;;;;;;;;;5014621;28;20183;-79
2021/04/18 02:56:11;;;;;;;10.00;5.50;;;;;;;;;;5015574;28;20620;-78
2021/04/18 02:58:37;;;;;;;9.23;5.40;;;;;;;;;;5014987;28;20262;-79
2021/04/18 03:01:03;;;;;;;10.40;5.47;;;;;;;;;;5030573;28;20207;-78
2021/04/18 03:03:29;;;;;;;13.83;5.23;;;;;;;;;;5030006;28;20209;-78
2021/04/18 03:05:55;;;;;;;11.80;5.40;;;;;;;;;;5030323;28;20193;-78
2021/04/18 03:08:21;;;;;;;8.73;4.73;;;;;;;;;;5029988;28;20187;-78
2021/04/18 03:10:47;;;;;;;9.60;5.30;;;;;;;;;;5013448;28;20188;-77
2021/04/18 03:13:13;;;;;;;11.90;5.80;;;;;;;;;;5014799;28;20237;-77
2021/04/18 03:15:39;;;;;;;12.87;5.27;;;;;;;;;;5029633;28;20219;-78
2021/04/18 03:18:05;;;;;;;10.60;5.60;;;;;;;;;;5013272;28;20183;-77
2021/04/18 03:20:31;;;;;;;9.20;5.17;;;;;;;;;;5012987;28;20179;-77
2021/04/18 03:22:57;;;;;;;10.70;5.73;;;;;;;;;;5013514;28;20391;-78
2021/04/18 03:25:23;;;;;;;10.43;6.07;;;;;;;;;;5013492;28;20261;-79
2021/04/18 03:27:49;;;;;;;15.40;5.80;;;;;;;;;;5013103;28;20678;-78
2021/04/18 03:30:15;;;;;;;12.13;5.83;;;;;;;;;;5013124;28;20180;-77
2021/04/18 03:32:41;;;;;;;10.87;5.97;;;;;;;;;;5014330;28;20670;-78
2021/04/18 03:35:08;;;;;;;10.60;5.73;;;;;;;;;;5029608;28;20188;-78
2021/04/18 03:37:34;;;;;;;11.83;6.17;;;;;;;;;;5013590;28;20184;-79
2021/04/18 03:40:00;;;;;;;14.00;6.57;;;;;;;;;;5029650;28;20180;-78
2021/04/18 03:42:26;;;;;;;9.73;5.50;;;;;;;;;;5016353;28;20618;-78
2021/04/18 03:44:52;;;;;;;11.80;5.53;;;;;;;;;;5032675;28;20203;-78
2021/04/18 03:47:18;;;;;;;10.27;6.23;;;;;;;;;;5016733;28;20206;-79
2021/04/18 03:49:44;;;;;;;12.53;5.97;;;;;;;;;;5015768;28;20731;-79
2021/04/18 03:52:10;;;;;;;13.03;6.37;;;;;;;;;;5014844;28;20187;-79
2021/04/18 03:54:36;;;;;;;11.67;6.13;;;;;;;;;;5012941;28;20179;-78
2021/04/18 03:57:02;;;;;;;10.90;6.37;;;;;;;;;;5012329;28;20233;-79
2021/04/18 03:59:28;;;;;;;12.63;6.47;;;;;;;;;;5029032;28;20189;-78
2021/04/18 04:01:54;;;;;;;10.77;5.90;;;;;;;;;;5027064;28;20253;-79
2021/04/18 04:04:20;;;;;;;10.83;6.30;;;;;;;;;;4977106;28;20674;-78
2021/04/18 04:06:46;;;;;;;13.37;6.10;;;;;;;;;;4977069;28;20690;-78
2021/04/18 04:09:13;;;;;;;11.13;6.27;;;;;;;;;;4976877;28;20211;-79
2021/04/18 04:11:39;;;;;;;11.03;6.33;;;;;;;;;;4993059;28;20204;-79
2021/04/18 04:14:05;;;;;;;11.83;6.10;;;;;;;;;;4993266;28;20662;-79
2021/04/18 04:16:31;;;;;;;14.37;6.67;;;;;;;;;;4976768;28;20224;-78
2021/04/18 04:18:57;;;;;;;13.37;6.70;;;;;;;;;;4976659;28;20186;-78
2021/04/18 04:21:24;;;;;;;12.00;6.40;;;;;;;;;;4993138;28;20261;-78
2021/04/18 04:23:50;;;;;;;12.27;7.43;;;;;;;;;;4976914;28;20190;-78
2021/04/18 04:26:16;;;;;;;13.97;7.40;;;;;;;;;;4976597;28;20203;-78
2021/04/18 04:28:41;;;;;;;12.67;7.37;;;;;;;;;;4993578;28;20230;-78
2021/04/18 04:31:07;;;;;;;16.33;7.50;;;;;;;;;;4976437;28;20279;-79
2021/04/18 04:33:34;;;;;;;13.30;7.23;;;;;;;;;;4993068;28;20208;-79
2021/04/18 04:36:00;;;;;;;14.00;7.97;;;;;;;;;;4977510;28;20214;-79
2021/04/18 04:38:26;;;;;;;12.03;7.60;;;;;;;;;;4976503;28;20184;-79
2021/04/18 04:40:52;;;;;;;14.97;7.53;;;;;;;;;;4976421;28;20206;-79
2021/04/18 04:43:18;;;;;;;14.63;7.80;;;;;;;;;;4992557;28;20172;-78
2021/04/18 04:45:44;;;;;;;16.10;8.00;;;;;;;;;;4992307;28;20655;-79
2021/04/18 04:48:11;;;;;;;11.60;8.03;;;;;;;;;;4976216;28;20222;-79
2021/04/18 04:50:37;;;;;;;13.83;7.87;;;;;;;;;;4992398;28;20173;-78
2021/04/18 04:53:03;;;;;;;13.23;8.03;;;;;;;;;;4976840;28;20214;-79
2021/04/18 04:55:30;;;;;;;13.50;8.07;;;;;;;;;;4991690;28;20200;-77
2021/04/18 04:57:56;;;;;;;13.60;8.20;;;;;;;;;;4975612;28;20272;-77
2021/04/18 05:00:23;;;;;;;14.03;7.80;;;;;;;;;;4975568;28;20274;-77
2021/04/18 05:02:49;;;;;;;12.60;7.73;;;;;;;;;;4975632;28;20192;-77
2021/04/18 05:05:15;;;;;;;17.53;8.10;;;;;;;;;;4975609;28;20216;-77
2021/04/18 05:07:41;;;;;;;14.27;7.90;;;;;;;;;;4991003;28;20180;-77
2021/04/18 05:10:07;;;;;;;15.13;8.53;;;;;;;;;;4975604;28;20191;-77
2021/04/18 05:12:34;;;;;;;14.87;8.03;;;;;;;;;;4991603;28;20180;-77
2021/04/18 05:15:00;;;;;;;14.97;8.00;;;;;;;;;;4975584;28;20190;-77
2021/04/18 05:17:26;;;;;;;15.00;8.43;;;;;;;;;;4990793;28;20214;-77
2021/04/18 05:19:52;;;;;;;13.50;7.90;;;;;;;;;;4990770;28;20190;-77
2021/04/18 05:22:19;;;;;;;12.47;7.93;;;;;;;;;;4974564;28;20233;-77
2021/04/18 05:24:45;;;;;;;14.50;8.53;;;;;;;;;;4974779;28;20175;-77
2021/04/18 05:27:11;;;;;;;15.10;7.73;;;;;;;;;;4990608;28;20674;-77
2021/04/18 05:29:37;;;;;;;16.13;8.50;;;;;;;;;;4974537;28;20180;-77
2021/04/18 05:32:03;;;;;;;14.30;8.30;;;;;;;;;;4974567;28;20184;-78
2021/04/18 05:34:29;;;;;;;14.67;8.67;;;;;;;;;;4992040;28;20234;-77
2021/04/18 05:36:55;;;;;;;14.50;8.27;;;;;;;;;;4974531;28;20215;-77
2021/04/18 05:39:21;;;;;;;14.43;8.10;;;;;;;;;;4974449;28;20189;-77
2021/04/18 05:41:47;;;;;;;15.87;9.10;;;;;;;;;;4990474;28;20196;-77
2021/04/18 05:44:16;;;;;;;15.47;9.37;;;;;;;;;;4990517;28;20181;-77
2021/04/18 05:46:42;;;;;;;14.33;8.43;;;;;;;;;;4990379;28;20203;-78
2021/04/18 05:49:08;;;;;;;13.77;7.70;;;;;;;;;;4990078;28;20174;-77
2021/04/18 05:51:34;;;;;;;15.07;9.13;;;;;;;;;;4974564;28;20531;-77
2021/04/18 05:54:00;;;;;;;15.33;8.30;;;;;;;;;;4990381;28;20187;-77
2021/04/18 05:56:26;;;;;;;16.70;8.83;;;;;;;;;;4990288;28;20208;-77
2021/04/18 05:58:52;;;;;;;14.13;8.83;;;;;;;;;;4974032;28;20250;-77
2021/04/18 06:01:22;;;;;;;13.23;8.83;;;;;;;;;;4991632;28;20212;-77
2021/04/18 06:03:48;;;;;;;15.03;8.90;;;;;;;;;;4990705;28;20168;-77
2021/04/18 06:06:14;;;;;;;14.07;8.90;;;;;;;;;;4990060;28;20200;-76
2021/04/18 06:08:40;;;;;;;17.33;9.27;;;;;;;;;;4990045;28;20184;-76
2021/04/18 06:11:07;;;;;;;16.03;9.33;;;;;;;;;;4990120;28;20184;-76
2021/04/18 06:13:33;;;;;;;15.63;8.53;;;;;;;;;;4990039;28;20262;-75
2021/04/18 06:15:59;;;;;;;14.63;8.60;;;;;;;;;;4970819;28;561009;-76
2021/04/18 06:18:25;;;;;;;16.47;9.03;;;;;;;;;;4993305;28;20176;-75
2021/04/18 06:20:51;;;;;;;18.77;9.30;;;;;;;;;;4997370;28;20294;-76
2021/04/18 06:23:17;;;;;;;15.33;9.10;;;;;;;;;;5014187;28;20219;-75
2021/04/18 06:25:43;;;;;;;16.00;9.33;;;;;;;;;;5017042;28;20198;-75
2021/04/18 06:28:09;;;;;;;15.83;9.03;;;;;;;;;;5000582;28;20464;-76
2021/04/18 06:30:35;;;;;;;15.03;9.03;;;;;;;;;;5013842;28;20639;-76
2021/04/18 06:33:01;;;;;;;15.70;9.00;;;;;;;;;;4997830;28;20265;-77
2021/04/18 06:35:27;;;;;;;14.10;8.47;;;;;;;;;;5015427;28;20247;-76
2021/04/18 06:37:53;;;;;;;18.53;9.17;;;;;;;;;;4998437;28;20536;-77
2021/04/18 06:40:19;;;;;;;14.97;9.17;;;;;;;;;;5013731;28;20171;-78
2021/04/18 06:42:45;;;;;;;14.67;9.47;;;;;;;;;;4998429;28;20211;-79
2021/04/18 06:45:11;;;;;;;17.07;9.73;;;;;;;;;;4998445;28;20649;-79
2021/04/18 06:47:38;;;;;;;16.67;9.73;;;;;;;;;;5015447;28;20215;-79
2021/04/18 06:50:04;;;;;;;15.07;9.67;;;;;;;;;;5014677;28;20179;-79
2021/04/18 06:52:32;;;;;;;14.67;9.50;;;;;;;;;;5015316;28;20176;-79
2021/04/18 06:54:58;;;;;;;14.73;9.67;;;;;;;;;;5014938;28;20176;-77
2021/04/18 06:57:24;;;;;;;18.03;9.60;;;;;;;;;;5013457;28;20230;-77
2021/04/18 06:59:50;;;;;;;17.13;9.13;;;;;;;;;;4997077;28;20273;-76
2021/04/18 07:02:23;;;;;;;16.03;9.43;;;;;;;;;;5015103;28;20694;-79
2021/04/18 07:04:55;;;;;;;17.70;9.27;;;;;;;;;;4998298;28;20214;-79
2021/04/18 07:07:30;;;;;;;14.97;9.93;;;;;;;;;;4999818;28;20203;-78
2021/04/18 07:09:56;;;;;;;15.87;10.00;;;;;;;;;;5016363;28;20178;-80
2021/04/18 07:12:26;;;;;;;15.60;9.93;;;;;;;;;;5016214;28;20194;-78
2021/04/18 07:14:52;;;;;;;17.33;10.67;;;;;;;;;;4998109;28;20187;-79
2021/04/18 07:17:18;;;;;;;16.83;9.30;;;;;;;;;;4997767;28;20219;-79
2021/04/18 07:19:49;;;;;;;19.13;9.90;;;;;;;;;;5015109;28;20183;-80
2021/04/18 07:22:19;;;;;;;15.90;9.63;;;;;;;;;;5000762;28;20208;-81
2021/04/18 07:24:52;;;;;;;17.17;10.20;;;;;;;;;;5002400;28;20266;-79
2021/04/18 07:27:18;;;;;;;18.70;9.67;;;;;;;;;;5002222;28;20219;-79
2021/04/18 07:29:47;;;;;;;14.67;9.53;;;;;;;;;;5001427;28;20716;-78
2021/04/18 07:32:17;;;;;;;17.10;9.47;;;;;;;;;;4999945;28;20199;-78
2021/04/18 07:34:43;;;;;;;14.70;9.50;;;;;;;;;;4997999;28;20188;-79
2021/04/18 07:37:13;;;;;;;14.73;9.17;;;;;;;;;;5015562;28;20574;-80
2021/04/18 07:39:42;;;;;;;15.37;8.90;;;;;;;;;;5002607;28;20536;-79
2021/04/18 07:42:08;;;;;;;11.97;8.50;;;;;;;;;;5020526;28;20249;-81
2021/04/18 07:44:34;;;;;;;16.97;9.00;;;;;;;;;;5018757;28;20263;-79
2021/04/18 07:47:00;;;;;;;14.97;8.10;;;;;;;;;;5004601;28;20242;-81
2021/04/18 07:49:26;;;;;;;13.43;9.00;;;;;;;;;;5000933;28;20180;-78
2021/04/18 07:51:52;;;;;;;13.60;8.27;;;;;;;;;;4997883;28;20194;-78
2021/04/18 07:54:19;;;;;;;16.37;8.70;;;;;;;;;;4997737;28;20189;-79
2021/04/18 07:56:45;;;;;;;12.17;8.13;;;;;;;;;;5005095;28;20201;-80
2021/04/18 07:59:15;;;;;;;12.93;7.87;;;;;;;;;;5003050;28;20283;-79
2021/04/18 08:01:41;;;;;;;12.37;8.30;;;;;;;;;;5019010;28;20612;-78
2021/04/18 08:04:09;;;;;;;12.70;7.70;;;;;;;;;;5022928;28;20649;-77
2021/04/18 08:06:35;;;;;;;11.73;8.17;;;;;;;;;;5026405;28;20200;-79
2021/04/18 08:09:01;;;;;;;13.13;7.90;;;;;;;;;;5003772;28;20235;-79
2021/04/18 08:11:27;;;;;;;13.37;7.83;;;;;;;;;;5023706;28;20198;-78
2021/04/18 08:13:53;;;;;;;12.17;7.63;;;;;;;;;;5007131;28;20654;-78
2021/04/18 08:16:29;;;;;;;13.67;7.07;;;;;;;;;;5012734;28;20233;-78
2021/04/18 08:19:05;;;;;;;8.80;6.30;;;;;;;;;;5004575;28;20259;-76
2021/04/18 08:21:38;;;;;;;12.47;7.47;;;;;;;;;;5005568;28;20201;-77
2021/04/18 08:24:05;;;;;;;13.77;7.07;;;;;;;;;;5022710;28;20186;-78
2021/04/18 08:26:32;;;;;;;10.73;6.60;;;;;;;;;;4999778;28;20290;-77
2021/04/18 08:28:59;;;;;;;12.87;7.13;;;;;;;;;;5003896;28;20187;-78
2021/04/18 08:31:28;;;;;;;10.10;6.17;;;;;;;;;;5029336;28;20183;-75
2021/04/18 08:33:55;;;;;;;8.23;6.10;;;;;;;;;;5024842;28;20267;-76
2021/04/18 08:36:22;;;;;;;9.67;6.10;;;;;;;;;;5021127;28;20559;-75
2021/04/18 08:39:01;;;;;;;10.83;5.97;;;;;;;;;;5013239;28;20654;-76
2021/04/18 08:41:39;;;;;;;13.20;6.40;;;;;;;;;;5012609;28;20213;-75
2021/04/18 08:44:38;;;;;;;11.73;6.40;;;;;;;;;;5006418;28;20180;-75
2021/04/18 08:47:14;;;;;;;10.20;6.70;;;;;;;;;;4978332;28;20211;-77
2021/04/18 08:49:43;;;;;;;10.57;6.43;;;;;;;;;;5012678;28;20608;-77
2021/04/18 08:52:10;;;;;;;9.43;6.47;;;;;;;;;;5012538;28;20203;-77
2021/04/18 08:54:37;;;;;;;13.20;6.63;;;;;;;;;;5012412;28;20591;-77
2021/04/18 08:57:06;;;;;;;9.77;5.80;;;;;;;;;;4994734;28;20196;-77
2021/04/18 08:59:32;;;;;;;11.60;6.13;;;;;;;;;;5006615;28;20640;-76
2021/04/18 09:02:10;;;;;;;8.87;5.83;;;;;;;;;;4999763;28;20208;-77
2021/04/18 09:04:41;;;;;;;10.23;5.83;;;;;;;;;;5003221;28;20237;-77
2021/04/18 09:07:07;;;;;;;8.03;5.50;;;;;;;;;;4994112;28;20199;-77
2021/04/18 09:09:34;;;;;;;10.60;5.93;;;;;;;;;;4995500;28;20192;-76
2021/04/18 09:12:00;;;;;;;9.93;5.60;;;;;;;;;;4991586;28;20183;-77
2021/04/18 09:14:28;;;;;;;7.63;5.20;;;;;;;;;;4996723;28;20663;-76
2021/04/18 09:16:53;;;;;;;12.90;6.20;;;;;;;;;;5000412;28;20270;-76
2021/04/18 09:19:23;;;;;;;13.20;6.43;;;;;;;;;;4999987;28;20179;-76
2021/04/18 09:22:08;;;;;;;10.07;5.93;;;;;;;;;;5006989;28;20261;-77
2021/04/18 09:24:41;;;;;;;9.70;5.63;;;;;;;;;;4989393;28;20204;-77
2021/04/18 09:27:09;;;;;;;8.30;5.77;;;;;;;;;;5011630;28;20775;-77
2021/04/18 09:29:35;;;;;;;11.70;6.10;;;;;;;;;;5009552;28;20204;-76
2021/04/18 09:32:06;;;;;;;9.17;5.73;;;;;;;;;;5001532;28;20666;-76
2021/04/18 09:34:32;;;;;;;9.13;5.60;;;;;;;;;;4986117;28;20278;-77
2021/04/18 09:36:59;;;;;;;11.20;6.43;;;;;;;;;;5002734;28;20208;-76
2021/04/18 09:39:26;;;;;;;11.93;6.30;;;;;;;;;;4992826;28;20187;-76
2021/04/18 09:41:51;;;;;;;9.80;6.33;;;;;;;;;;4990805;28;20267;-77
2021/04/18 09:44:29;;;;;;;10.00;6.17;;;;;;;;;;5025219;28;20179;-77
2021/04/18 09:46:55;;;;;;;10.63;6.40;;;;;;;;;;4987546;28;20209;-76
2021/04/18 09:49:21;;;;;;;11.37;6.27;;;;;;;;;;5011518;28;20188;-78
2021/04/18 09:51:51;;;;;;;9.43;6.17;;;;;;;;;;4984355;28;20192;-76
2021/04/18 09:54:25;;;;;;;11.33;6.40;;;;;;;;;;4977377;28;20192;-76
2021/04/18 09:57:09;;;;;;;10.03;6.30;;;;;;;;;;4995702;28;20206;-78
2021/04/18 09:59:35;;;;;;;8.50;6.23;;;;;;;;;;5003922;28;20179;-77
2021/04/18 10:02:14;;;;;;;8.53;6.60;;;;;;;;;;4990656;28;20202;-77
2021/04/18 10:04:40;;;;;;;10.20;6.77;;;;;;;;;;5012723;28;20176;-79
2021/04/18 10:07:06;;;;;;;12.37;6.80;;;;;;;;;;5000071;28;20191;-78
2021/04/18 10:09:49;;;;;;;8.63;6.40;;;;;;;;;;4998780;28;20176;-79
2021/04/18 10:12:15;;;;;;;11.87;6.17;;;;;;;;;;5018383;28;20199;-80
2021/04/18 10:14:41;;;;;;;11.13;7.00;;;;;;;;;;5017732;28;20180;-77
2021/04/18 10:17:07;;;;;;;11.90;6.20;;;;;;;;;;4999305;28;20319;-76
2021/04/18 10:19:33;;;;;;;9.30;6.03;;;;;;;;;;4998973;28;20188;-76
2021/04/18 10:22:08;;;;;;;11.27;6.27;;;;;;;;;;4998545;28;20207;-79
2021/04/18 10:24:50;;;;;;;12.50;6.57;;;;;;;;;;5014470;28;20202;-76
2021/04/18 10:27:23;;;;;;;9.83;6.37;;;;;;;;;;5014101;28;20196;-77
2021/04/18 10:29:49;;;;;;;13.93;6.67;;;;;;;;;;5015422;28;20171;-78
2021/04/18 10:32:15;;;;;;;10.03;6.50;;;;;;;;;;4998666;28;20241;-78
2021/04/18 10:34:41;;;;;;;11.33;6.20;;;;;;;;;;5015343;28;20180;-77
2021/04/18 10:37:07;;;;;;;9.80;6.17;;;;;;;;;;5015901;28;20283;-78
2021/04/18 10:39:33;;;;;;;9.83;6.33;;;;;;;;;;5018021;28;20558;-77
2021/04/18 10:41:59;;;;;;;12.37;6.90;;;;;;;;;;4999423;28;20667;-75
2021/04/18 10:44:27;;;;;;;9.73;6.53;;;;;;;;;;5012273;28;20188;-76
2021/04/18 10:46:54;;;;;;;12.63;6.60;;;;;;;;;;4996172;28;20207;-76
2021/04/18 10:49:20;;;;;;;10.77;7.27;;;;;;;;;;4995203;28;20187;-75
2021/04/18 10:51:47;;;;;;;12.33;7.63;;;;;;;;;;5012741;28;20270;-77
2021/04/18 10:54:13;;;;;;;12.70;7.20;;;;;;;;;;4996664;28;20191;-78
2021/04/18 10:56:40;;;;;;;10.13;6.77;;;;;;;;;;5013576;28;20680;-78
2021/04/18 10:59:06;;;;;;;10.40;6.97;;;;;;;;;;5012026;28;20276;-76
2021/04/18 11:01:32;;;;;;;11.20;6.77;;;;;;;;;;5012777;28;20284;-76
2021/04/18 11:03:58;;;;;;;9.47;7.10;;;;;;;;;;4997864;28;20183;-78
2021/04/18 11:06:24;;;;;;;10.07;6.53;;;;;;;;;;5013715;28;20622;-77
2021/04/18 11:08:50;;;;;;;11.57;7.03;;;;;;;;;;4998278;28;20180;-78
2021/04/18 11:11:16;;;;;;;11.17;6.87;;;;;;;;;;5009685;28;20309;-77
2021/04/18 11:13:42;;;;;;;11.77;6.80;;;;;;;;;;5003208;28;20204;-78
2021/04/18 11:16:08;;;;;;;10.90;7.23;;;;;;;;;;4994723;28;20361;-78
2021/04/18 11:18:34;;;;;;;13.17;7.40;;;;;;;;;;4978541;28;20188;-78
2021/04/18 11:21:00;;;;;;;11.73;6.93;;;;;;;;;;4994978;28;20200;-78
2021/04/18 11:23:26;;;;;;;10.90;7.77;;;;;;;;;;4995853;28;20227;-78
2021/04/18 11:25:52;;;;;;;14.67;8.20;;;;;;;;;;4994887;28;20810;-78
2021/04/18 11:28:18;;;;;;;10.77;7.10;;;;;;;;;;4995579;28;20191;-78
2021/04/18 11:30:44;;;;;;;11.60;7.40;;;;;;;;;;4995687;28;20700;-80
2021/04/18 11:33:11;;;;;;;12.07;7.27;;;;;;;;;;4995401;28;20541;-79
2021/04/18 11:35:37;;;;;;;12.07;6.83;;;;;;;;;;4995278;28;20204;-78
2021/04/18 11:38:03;;;;;;;11.97;7.10;;;;;;;;;;4994365;28;20690;-78
2021/04/18 11:40:30;;;;;;;10.80;7.20;;;;;;;;;;4978536;28;20184;-78
2021/04/18 11:42:56;;;;;;;11.57;6.93;;;;;;;;;;4994318;28;20739;-78
2021/04/18 11:45:22;;;;;;;9.47;6.83;;;;;;;;;;4978175;28;20187;-79
2021/04/18 11:47:48;;;;;;;12.33;6.87;;;;;;;;;;4995519;28;20183;-79
2021/04/18 11:50:14;;;;;;;10.47;7.07;;;;;;;;;;4980087;28;20204;-78
2021/04/18 11:52:40;;;;;;;10.20;7.13;;;;;;;;;;4999410;28;20219;-78
2021/04/18 11:55:10;;;;;;;9.20;7.27;;;;;;;;;;4980968;28;20195;-78
2021/04/18 11:57:36;;;;;;;12.77;7.37;;;;;;;;;;4982919;28;20226;-79
2021/04/18 12:00:03;;;;;;;12.67;7.00;;;;;;;;;;4995084;28;20259;-79
2021/04/18 12:02:29;;;;;;;10.97;6.80;;;;;;;;;;5011513;28;20210;-78
2021/04/18 12:04:55;;;;;;;12.03;6.97;;;;;;;;;;5014240;28;20184;-78
2021/04/18 12:07:21;;;;;;;12.47;7.43;;;;;;;;;;4997600;28;20298;-77
2021/04/18 12:09:47;;;;;;;11.77;7.50;;;;;;;;;;5000101;28;20729;-78
2021/04/18 12:12:13;;;;;;;10.93;7.87;;;;;;;;;;5006324;28;20247;-78
2021/04/18 12:14:39;;;;;;;9.37;6.67;;;;;;;;;;5014680;28;20187;-79
2021/04/18 12:17:05;;;;;;;13.70;6.70;;;;;;;;;;4996750;28;20277;-78
2021/04/18 12:19:31;;;;;;;9.83;6.97;;;;;;;;;;4997020;28;20180;-78
2021/04/18 12:21:57;;;;;;;9.20;6.67;;;;;;;;;;4997338;28;20211;-78
2021/04/18 12:24:23;;;;;;;12.53;6.67;;;;;;;;;;4999153;28;20183;-78
2021/04/18 12:26:49;;;;;;;11.67;6.50;;;;;;;;;;5019016;28;20203;-78
2021/04/18 12:29:15;;;;;;;9.27;6.07;;;;;;;;;;5014591;28;20257;-75
2021/04/18 12:31:41;;;;;;;9.00;6.00;;;;;;;;;;5015526;28;20721;-79
2021/04/18 12:34:08;;;;;;;7.73;6.00;;;;;;;;;;5001149;28;20225;-79
2021/04/18 12:36:34;;;;;;;9.17;5.70;;;;;;;;;;4999180;28;20199;-79
2021/04/18 12:39:00;;;;;;;8.40;5.90;;;;;;;;;;4999660;28;20258;-82
2021/04/18 12:41:27;;;;;;;11.37;6.07;;;;;;;;;;5000989;28;20207;-83
2021/04/18 12:43:53;;;;;;;9.40;5.80;;;;;;;;;;5001243;28;20212;-81
2021/04/18 12:46:20;;;;;;;11.67;6.00;;;;;;;;;;4999119;28;20199;-80
2021/04/18 12:48:47;;;;;;;11.93;6.60;;;;;;;;;;4999924;28;20180;-79
2021/04/18 12:51:13;;;;;;;7.73;5.93;;;;;;;;;;4998112;28;20225;-78
2021/04/18 12:53:39;;;;;;;9.10;5.77;;;;;;;;;;5000767;28;20192;-78
2021/04/18 12:56:05;;;;;;;7.50;5.43;;;;;;;;;;5015947;28;20199;-78
2021/04/18 12:58:31;;;;;;;10.20;5.63;;;;;;;;;;4996235;28;20191;-78
2021/04/18 13:00:57;;;;;;;8.50;5.57;;;;;;;;;;5012880;28;20234;-77
2021/04/18 13:03:23;;;;;;;10.97;6.50;;;;;;;;;;5013880;28;20239;-78
2021/04/18 13:05:50;;;;;;;11.77;6.07;;;;;;;;;;5012780;28;20192;-78
2021/04/18 13:08:16;;;;;;;9.20;6.37;;;;;;;;;;5007380;28;20194;-77
2021/04/18 13:10:42;;;;;;;10.87;7.00;;;;;;;;;;5015347;28;20180;-78
2021/04/18 13:13:08;;;;;;;9.63;6.07;;;;;;;;;;5015179;28;20183;-78
2021/04/18 13:15:34;;;;;;;8.60;5.80;;;;;;;;;;5013891;28;20284;-78
2021/04/18 13:18:00;;;;;;;9.80;6.37;;;;;;;;;;5013674;28;20720;-78
2021/04/18 13:20:26;;;;;;;10.43;6.27;;;;;;;;;;4996172;28;20179;-78
2021/04/18 13:22:52;;;;;;;9.27;6.13;;;;;;;;;;4996399;28;20210;-77
2021/04/18 13:25:18;;;;;;;10.30;6.53;;;;;;;;;;5012637;28;20250;-78
2021/04/18 13:27:44;;;;;;;8.37;6.63;;;;;;;;;;4996434;28;20613;-78
2021/04/18 13:30:10;;;;;;;9.20;6.23;;;;;;;;;;5016929;28;20650;-78
2021/04/18 13:32:36;;;;;;;9.27;6.80;;;;;;;;;;5000682;28;20190;-79
2021/04/18 13:35:03;;;;;;;8.80;6.80;;;;;;;;;;5000524;28;20664;-78
2021/04/18 13:37:29;;;;;;;9.50;6.53;;;;;;;;;;5017122;28;20201;-77
2021/04/18 13:39:55;;;;;;;9.57;7.00;;;;;;;;;;5017914;28;20179;-79
2021/04/18 13:42:21;;;;;;;9.87;6.77;;;;;;;;;;5008927;28;20230;-78
2021/04/18 13:44:47;;;;;;;11.03;6.73;;;;;;;;;;4981081;28;20230;-79
2021/04/18 13:47:13;;;;;;;9.27;6.60;;;;;;;;;;4981194;28;20196;-79
2021/04/18 13:49:39;;;;;;;10.40;6.77;;;;;;;;;;4995976;28;20242;-78
2021/04/18 13:52:06;;;;;;;9.00;6.90;;;;;;;;;;4997950;28;20180;-84
2021/04/18 13:54:32;;;;;;;12.77;6.63;;;;;;;;;;4982595;28;20559;-78
2021/04/18 13:56:58;;;;;;;10.00;6.47;;;;;;;;;;4982794;28;20274;-78
2021/04/18 13:59:24;;;;;;;8.97;6.37;;;;;;;;;;5001069;28;20222;-78
2021/04/18 14:01:50;;;;;;;9.37;7.17;;;;;;;;;;5018413;28;20214;-79
2021/04/18 14:04:16;;;;;;;9.93;7.20;;;;;;;;;;5019148;28;20179;-80
2021/04/18 14:06:42;;;;;;;10.17;7.00;;;;;;;;;;5001898;28;20282;-78
2021/04/18 14:09:08;;;;;;;11.50;6.40;;;;;;;;;;5018847;28;20603;-79
2021/04/18 14:11:34;;;;;;;9.13;6.90;;;;;;;;;;5018258;28;20308;-79
2021/04/18 14:13:59;;;;;;;11.63;7.13;;;;;;;;;;5017410;28;20225;-78
2021/04/18 14:16:25;;;;;;;12.43;6.90;;;;;;;;;;5018921;28;20716;-79
2021/04/18 14:18:51;;;;;;;9.10;7.00;;;;;;;;;;5016681;28;20184;-77
2021/04/18 14:21:17;;;;;;;11.10;7.03;;;;;;;;;;5015346;28;20203;-77
2021/04/18 14:23:43;;;;;;;12.00;6.80;;;;;;;;;;5003692;28;20190;-77
2021/04/18 14:26:09;;;;;;;10.43;7.30;;;;;;;;;;4998506;28;20204;-78
2021/04/18 14:28:36;;;;;;;8.87;6.60;;;;;;;;;;4998994;28;20278;-77
2021/04/18 14:31:02;;;;;;;8.40;6.33;;;;;;;;;;5014590;28;20175;-77